AirNav   Air Wisconsin Up To $57,000 Bonus
 
 1501 users online  

19IA Ancam Antique Airfield
West Burlington, Iowa, USA

GOING TO WEST BURLINGTON?


FAA INFORMATION EFFECTIVE 05 DECEMBER 2019

Location

FAA Identifier: 19IA
Lat/Long: 40-51-24.6400N 091-12-13.5300W
40-51.410667N 091-12.225500W
40.8568444,-91.2037583
(estimated)
Elevation: 690 ft. / 210 m (estimated)
From city: 3 miles NW of WEST BURLINGTON, IA
Time zone: UTC -6 (UTC -5 during Daylight Saving Time)
Zip code: 52655

Airport Operations

Airport use: Private use. Permission required prior to landing
Activation date: 02/2003
Control tower: no
ARTCC: CHICAGO CENTER
FSS: FORT DODGE FLIGHT SERVICE STATION
Attendance: UNATNDD
Wind indicator: yes
Segmented circle: no

Airport Communications

WX ASOS at BRL (6 nm SE): 118.025 (319-752-6246)
WX AWOS-3 at FSW (13 nm SW): 120.925 (319-372-5147)
WX AWOS-3 at MPZ (15 nm W): 119.325 (319-385-4926)

Nearby radio navigation aids

VOR radial/distance  VOR name  Freq  Var
BRLr297/14.9BURLINGTON VOR/DME111.4005E
GBGr259/35.2GALESBURG VOR/DME109.8003E
MZVr218/37.8MOLINE VOR/DME114.4005E

 
NDB name  Hdg/Dist  Freq  Var  ID
BURNS342/12.739001EBR -... .-.
KEOKUK022/25.736602EEOK . --- -.-
MACOMB304/35.625101EJZY .--- --.. -.--

Airport Services

Runway Information

Runway 18/36

Dimensions: 3400 x 100 ft. / 1036 x 30 m
Surface: turf, in good condition
RUNWAY 18  RUNWAY 36
Traffic pattern: rightleft
Obstructions: 50 ft. trees, 200 ft. from runway50 ft. trees, 1000 ft. from runway

Airport Ownership and Management from official FAA records

Ownership: Privately-owned
Owner: ANCAM ANTIQUE AIRFIELD MUSEUM
12126 NEPENTHE
WEST BURLINGTON, IA 52655
Phone 319-753-1120
Manager: DAVID C. CAMP
12128 NEPENTHE
WEST BURLINGTON, IA 52655
Phone 319-753-1120
HEUGENE ANDERSON @ 319-754-5829

Airport Operational Statistics

Aircraft based on the field: 4
Single engine airplanes: 4
    

Additional Remarks

FOR CD CTC CHICAGO ARTCC AT 630-906-8921.

Instrument Procedures

There are no published instrument procedures at 19IA.

Some nearby airports with instrument procedures:

KBRL - Southeast Iowa Regional Airport (6 nm SE)
KFSW - Fort Madison Municipal Airport (13 nm SW)
KMPZ - Mount Pleasant Municipal Airport (15 nm W)
KEOK - Keokuk Municipal Airport (26 nm SW)
C66 - Monmouth Municipal Airport (26 nm E)
 
Loc | Ops | Rwys | IFR | FBO | Links
Com | Nav | Svcs | Stats | Notes
Area around 19IA (Ancam Antique Airfield)
 
Road maps at: MapQuest Bing Google
 
Aerial photo
No photo
 
Sectional chart

 
Airport distance calculator
Flying to Ancam Antique Airfield? Find the distance to fly.

From to 19IA

Sunrise and sunset
Times for 05-Dec-2019
 Local
(UTC-6)
 Zulu
(UTC)
Morning civil twilight06:4412:44
Sunrise07:1513:15
Sunset16:3622:36
Evening civil twilight17:0723:07

Current date and time
Zulu (UTC)  05-Dec-2019 16:23:12
Local (UTC-6)  05-Dec-2019 10:23:12
 
METAR
KBRL 
6nm SE 
051553Z AUTO 18008KT 10SM CLR 07/01 A2999 RMK AO2 SLP159 T00670011
KFSW 
13nm SW 
051555Z AUTO 17007KT 10SM CLR 07/02 A2999 RMK AO2
KMPZ 
15nm W 
051555Z AUTO 19008KT 10SM CLR 07/04 A2998 RMK AO2
TAF
KBRL 
6nm SE 
051140Z 0512/0612 VRB04KT P6SM SKC FM051500 20006KT P6SM SCT250 FM060500 33010KT P6SM SCT030 BKN250 FM060700 34013G20KT P6SM BKN025
NOTAMs
Click for the latest NOTAMs
NOTAMs are issued by the DoD/FAA and will open in a separate window not controlled by AirNav.

 

 
 

Would you like to see your business listed on this page?

 If your business provides an interesting product or service to pilots, flight crews, aircraft, or users of the Ancam Antique Airfield, you should consider listing it here.  To start the listing process, click on the button below
 
Add a business
 

Other Pages about Ancam Antique Airfield

Update a link
 
Copyright © AirNav, LLC. All rights reserved. Privacy Policy  Contact